sensor_id;sensor_type;location;lat;lon;timestamp;pressure;altitude;pressure_sealevel;temperature;humidity
76994;BME280;66749;47.406;18.822;2024-01-27T00:00:25;100928.22;;;6.84;94.87
76994;BME280;66749;47.406;18.822;2024-01-27T00:00:57;100918.84;;;6.80;94.76
76994;BME280;66749;47.406;18.822;2024-01-27T00:01:29;100916.28;;;6.79;94.65
76994;BME280;66749;47.406;18.822;2024-01-27T00:02:01;100910.38;;;6.75;95.00
76994;BME280;66749;47.406;18.822;2024-01-27T00:02:33;100919.06;;;6.74;95.17
76994;BME280;66749;47.406;18.822;2024-01-27T00:03:05;100921.63;;;6.74;95.53
76994;BME280;66749;47.406;18.822;2024-01-27T00:03:37;100920.03;;;6.70;95.79
76994;BME280;66749;47.406;18.822;2024-01-27T00:04:08;100923.41;;;6.72;95.53
76994;BME280;66749;47.406;18.822;2024-01-27T00:04:40;100915.69;;;6.71;95.29
76994;BME280;66749;47.406;18.822;2024-01-27T00:05:12;100926.00;;;6.72;94.97
76994;BME280;66749;47.406;18.822;2024-01-27T00:05:44;100914.06;;;6.68;95.08
76994;BME280;66749;47.406;18.822;2024-01-27T00:06:16;100910.59;;;6.67;94.73
76994;BME280;66749;47.406;18.822;2024-01-27T00:06:48;100907.06;;;6.70;94.44
76994;BME280;66749;47.406;18.822;2024-01-27T00:07:20;100925.28;;;6.68;93.81
76994;BME280;66749;47.406;18.822;2024-01-27T00:07:52;100920.94;;;6.69;93.87
76994;BME280;66749;47.406;18.822;2024-01-27T00:08:24;100911.50;;;6.66;93.59
76994;BME280;66749;47.406;18.822;2024-01-27T00:08:56;100917.53;;;6.67;93.56
76994;BME280;66749;47.406;18.822;2024-01-27T00:09:28;100917.63;;;6.64;93.40
76994;BME280;66749;47.406;18.822;2024-01-27T00:09:59;100915.88;;;6.64;93.26
76994;BME280;66749;47.406;18.822;2024-01-27T00:10:31;100921.97;;;6.63;93.04
76994;BME280;66749;47.406;18.822;2024-01-27T00:11:03;100928.00;;;6.64;93.08
76994;BME280;66749;47.406;18.822;2024-01-27T00:11:35;100925.50;;;6.61;92.87
76994;BME280;66749;47.406;18.822;2024-01-27T00:12:07;100927.31;;;6.59;93.06
76994;BME280;66749;47.406;18.822;2024-01-27T00:12:40;100925.56;;;6.59;93.05
76994;BME280;66749;47.406;18.822;2024-01-27T00:13:12;100933.34;;;6.59;92.74
76994;BME280;66749;47.406;18.822;2024-01-27T00:13:44;100918.75;;;6.55;92.57
76994;BME280;66749;47.406;18.822;2024-01-27T00:14:16;100932.50;;;6.57;92.89
76994;BME280;66749;47.406;18.822;2024-01-27T00:14:48;100937.69;;;6.59;92.04
76994;BME280;66749;47.406;18.822;2024-01-27T00:15:20;100926.59;;;6.54;91.05
76994;BME280;66749;47.406;18.822;2024-01-27T00:15:52;100932.50;;;6.57;90.37
76994;BME280;66749;47.406;18.822;2024-01-27T00:16:26;100934.97;;;6.62;90.14
76994;BME280;66749;47.406;18.822;2024-01-27T00:16:57;100937.56;;;6.62;90.54
76994;BME280;66749;47.406;18.822;2024-01-27T00:17:29;100930.63;;;6.62;90.77
76994;BME280;66749;47.406;18.822;2024-01-27T00:18:01;100917.78;;;6.59;90.57
76994;BME280;66749;47.406;18.822;2024-01-27T00:18:36;100940.28;;;6.59;89.98
76994;BME280;66749;47.406;18.822;2024-01-27T00:19:08;100947.28;;;6.55;89.54
76994;BME280;66749;47.406;18.822;2024-01-27T00:19:40;100936.00;;;6.58;88.61
76994;BME280;66749;47.406;18.822;2024-01-27T00:20:13;100942.03;;;6.58;88.70
76994;BME280;66749;47.406;18.822;2024-01-27T00:20:45;100934.25;;;6.58;88.46
76994;BME280;66749;47.406;18.822;2024-01-27T00:21:17;100947.16;;;6.60;88.41
76994;BME280;66749;47.406;18.822;2024-01-27T00:21:49;100953.25;;;6.59;88.61
76994;BME280;66749;47.406;18.822;2024-01-27T00:22:21;100934.31;;;6.55;88.50
76994;BME280;66749;47.406;18.822;2024-01-27T00:22:52;100940.28;;;6.57;87.19
76994;BME280;66749;47.406;18.822;2024-01-27T00:23:24;100955.84;;;6.59;87.55
76994;BME280;66749;47.406;18.822;2024-01-27T00:23:56;100943.78;;;6.56;86.77
76994;BME280;66749;47.406;18.822;2024-01-27T00:24:32;100949.78;;;6.58;86.50
76994;BME280;66749;47.406;18.822;2024-01-27T00:25:04;100941.19;;;6.56;85.81
76994;BME280;66749;47.406;18.822;2024-01-27T00:25:36;100939.44;;;6.58;85.79
76994;BME280;66749;47.406;18.822;2024-01-27T00:26:08;100961.00;;;6.59;86.14
76994;BME280;66749;47.406;18.822;2024-01-27T00:26:40;100954.97;;;6.58;85.58
76994;BME280;66749;47.406;18.822;2024-01-27T00:27:12;100957.53;;;6.60;85.83
76994;BME280;66749;47.406;18.822;2024-01-27T00:27:44;100961.94;;;6.56;85.39
76994;BME280;66749;47.406;18.822;2024-01-27T00:28:16;100937.69;;;6.57;85.89
76994;BME280;66749;47.406;18.822;2024-01-27T00:28:48;100963.63;;;6.57;84.68
76994;BME280;66749;47.406;18.822;2024-01-27T00:29:20;100961.88;;;6.59;83.46
76994;BME280;66749;47.406;18.822;2024-01-27T00:29:52;100959.22;;;6.61;83.31
76994;BME280;66749;47.406;18.822;2024-01-27T00:30:24;100958.38;;;6.60;83.62
76994;BME280;66749;47.406;18.822;2024-01-27T00:30:56;100953.25;;;6.59;83.67
76994;BME280;66749;47.406;18.822;2024-01-27T00:31:27;100961.00;;;6.59;83.59
76994;BME280;66749;47.406;18.822;2024-01-27T00:31:59;100939.44;;;6.58;83.01
76994;BME280;66749;47.406;18.822;2024-01-27T00:32:31;100949.69;;;6.61;82.82
76994;BME280;66749;47.406;18.822;2024-01-27T00:33:06;100953.84;;;6.67;82.28
76994;BME280;66749;47.406;18.822;2024-01-27T00:33:38;100953.94;;;6.64;82.09
76994;BME280;66749;47.406;18.822;2024-01-27T00:34:10;100953.91;;;6.65;81.87
76994;BME280;66749;47.406;18.822;2024-01-27T00:34:42;100958.13;;;6.68;81.78
76994;BME280;66749;47.406;18.822;2024-01-27T00:35:14;100947.81;;;6.66;81.16
76994;BME280;66749;47.406;18.822;2024-01-27T00:35:48;100942.63;;;6.66;81.41
76994;BME280;66749;47.406;18.822;2024-01-27T00:36:20;100948.75;;;6.64;82.06
76994;BME280;66749;47.406;18.822;2024-01-27T00:36:52;100948.75;;;6.64;81.63
76994;BME280;66749;47.406;18.822;2024-01-27T00:37:24;100960.91;;;6.62;82.14
76994;BME280;66749;47.406;18.822;2024-01-27T00:37:57;100954.81;;;6.63;82.09
76994;BME280;66749;47.406;18.822;2024-01-27T00:38:29;100948.78;;;6.62;82.61
76994;BME280;66749;47.406;18.822;2024-01-27T00:39:00;100968.69;;;6.62;82.12
76994;BME280;66749;47.406;18.822;2024-01-27T00:39:32;100965.31;;;6.60;81.79
76994;BME280;66749;47.406;18.822;2024-01-27T00:40:07;100960.91;;;6.62;81.84
76994;BME280;66749;47.406;18.822;2024-01-27T00:40:40;100962.66;;;6.61;82.03
76994;BME280;66749;47.406;18.822;2024-01-27T00:41:17;100956.72;;;6.58;82.75
76994;BME280;66749;47.406;18.822;2024-01-27T00:41:51;100962.78;;;6.57;82.63
76994;BME280;66749;47.406;18.822;2024-01-27T00:42:23;100955.97;;;6.54;82.54
76994;BME280;66749;47.406;18.822;2024-01-27T00:42:56;100959.44;;;6.53;83.28
76994;BME280;66749;47.406;18.822;2024-01-27T00:43:28;100949.97;;;6.52;82.98
76994;BME280;66749;47.406;18.822;2024-01-27T00:44:00;100955.84;;;6.57;83.27
76994;BME280;66749;47.406;18.822;2024-01-27T00:44:32;100945.59;;;6.54;82.92
76994;BME280;66749;47.406;18.822;2024-01-27T00:45:05;100961.09;;;6.56;82.33
76994;BME280;66749;47.406;18.822;2024-01-27T00:45:37;100960.25;;;6.55;83.01
76994;BME280;66749;47.406;18.822;2024-01-27T00:46:08;100961.91;;;6.58;83.14
76994;BME280;66749;47.406;18.822;2024-01-27T00:46:40;100945.47;;;6.57;83.37
76994;BME280;66749;47.406;18.822;2024-01-27T00:47:12;100961.94;;;6.56;83.21
76994;BME280;66749;47.406;18.822;2024-01-27T00:47:44;100956.69;;;6.59;82.90
76994;BME280;66749;47.406;18.822;2024-01-27T00:48:16;100962.75;;;6.58;83.17
76994;BME280;66749;47.406;18.822;2024-01-27T00:48:48;100968.81;;;6.57;83.49
76994;BME280;66749;47.406;18.822;2024-01-27T00:49:20;100967.13;;;6.56;82.98
76994;BME280;66749;47.406;18.822;2024-01-27T00:49:52;100984.38;;;6.57;83.38
76994;BME280;66749;47.406;18.822;2024-01-27T00:50:26;100969.78;;;6.55;83.48
76994;BME280;66749;47.406;18.822;2024-01-27T00:50:57;100976.66;;;6.56;83.51
76994;BME280;66749;47.406;18.822;2024-01-27T00:51:29;100969.88;;;6.52;84.04
76994;BME280;66749;47.406;18.822;2024-01-27T00:52:01;100970.78;;;6.49;83.80
76994;BME280;66749;47.406;18.822;2024-01-27T00:52:33;100977.72;;;6.50;84.06
76994;BME280;66749;47.406;18.822;2024-01-27T00:53:05;100983.75;;;6.49;84.16
76994;BME280;66749;47.406;18.822;2024-01-27T00:53:37;100987.31;;;6.47;84.75
76994;BME280;66749;47.406;18.822;2024-01-27T00:54:09;100986.41;;;6.48;84.64
76994;BME280;66749;47.406;18.822;2024-01-27T00:54:40;100989.94;;;6.45;84.88
76994;BME280;66749;47.406;18.822;2024-01-27T00:55:12;100979.47;;;6.48;84.01
76994;BME280;66749;47.406;18.822;2024-01-27T00:55:44;100985.47;;;6.50;83.89
76994;BME280;66749;47.406;18.822;2024-01-27T00:56:16;100986.34;;;6.49;84.57
76994;BME280;66749;47.406;18.822;2024-01-27T00:56:48;100989.84;;;6.48;84.68
76994;BME280;66749;47.406;18.822;2024-01-27T00:57:20;100990.69;;;6.49;84.60
76994;BME280;66749;47.406;18.822;2024-01-27T00:57:52;100987.25;;;6.48;84.87
76994;BME280;66749;47.406;18.822;2024-01-27T00:58:25;101000.31;;;6.45;84.70
76994;BME280;66749;47.406;18.822;2024-01-27T00:58:57;100989.16;;;6.42;85.12
76994;BME280;66749;47.406;18.822;2024-01-27T00:59:29;100983.97;;;6.42;85.08
76994;BME280;66749;47.406;18.822;2024-01-27T01:00:00;100984.84;;;6.42;85.64
76994;BME280;66749;47.406;18.822;2024-01-27T01:00:32;100992.59;;;6.42;85.38
76994;BME280;66749;47.406;18.822;2024-01-27T01:01:04;100990.16;;;6.37;84.99
76994;BME280;66749;47.406;18.822;2024-01-27T01:01:36;100992.72;;;6.39;85.35
76994;BME280;66749;47.406;18.822;2024-01-27T01:02:08;100995.41;;;6.36;84.87
76994;BME280;66749;47.406;18.822;2024-01-27T01:02:40;101000.59;;;6.36;85.14
76994;BME280;66749;47.406;18.822;2024-01-27T01:03:12;100977.25;;;6.36;85.30
76994;BME280;66749;47.406;18.822;2024-01-27T01:03:44;100993.59;;;6.38;85.49
76994;BME280;66749;47.406;18.822;2024-01-27T01:04:17;101003.06;;;6.39;85.47
76994;BME280;66749;47.406;18.822;2024-01-27T01:04:49;100992.75;;;6.37;84.93
76994;BME280;66749;47.406;18.822;2024-01-27T01:05:21;100994.34;;;6.42;84.87
76994;BME280;66749;47.406;18.822;2024-01-27T01:05:53;100999.59;;;6.40;85.48
76994;BME280;66749;47.406;18.822;2024-01-27T01:06:25;100997.09;;;6.37;85.60
76994;BME280;66749;47.406;18.822;2024-01-27T01:06:57;100993.59;;;6.38;85.23
76994;BME280;66749;47.406;18.822;2024-01-27T01:07:32;100996.25;;;6.36;85.43
76994;BME280;66749;47.406;18.822;2024-01-27T01:08:04;100995.41;;;6.34;85.33
76994;BME280;66749;47.406;18.822;2024-01-27T01:08:37;100987.53;;;6.39;85.11
76994;BME280;66749;47.406;18.822;2024-01-27T01:09:09;100996.94;;;6.42;85.58
76994;BME280;66749;47.406;18.822;2024-01-27T01:09:41;101003.19;;;6.36;85.53
76994;BME280;66749;47.406;18.822;2024-01-27T01:10:13;100998.91;;;6.35;85.43
76994;BME280;66749;47.406;18.822;2024-01-27T01:10:45;100997.22;;;6.32;85.75
76994;BME280;66749;47.406;18.822;2024-01-27T01:11:17;100998.00;;;6.34;85.15
76994;BME280;66749;47.406;18.822;2024-01-27T01:11:49;101001.56;;;6.32;85.58
76994;BME280;66749;47.406;18.822;2024-01-27T01:12:21;101003.41;;;6.28;85.88
76994;BME280;66749;47.406;18.822;2024-01-27T01:12:53;100999.06;;;6.29;85.22
76994;BME280;66749;47.406;18.822;2024-01-27T01:13:25;101007.63;;;6.31;85.56
76994;BME280;66749;47.406;18.822;2024-01-27T01:13:57;101007.53;;;6.34;85.24
76994;BME280;66749;47.406;18.822;2024-01-27T01:14:29;100999.81;;;6.32;85.62
76994;BME280;66749;47.406;18.822;2024-01-27T01:15:01;101003.25;;;6.33;85.67
76994;BME280;66749;47.406;18.822;2024-01-27T01:15:33;100998.13;;;6.31;85.52
76994;BME280;66749;47.406;18.822;2024-01-27T01:16:05;101005.94;;;6.30;85.93
76994;BME280;66749;47.406;18.822;2024-01-27T01:16:40;101014.66;;;6.27;85.72
76994;BME280;66749;47.406;18.822;2024-01-27T01:17:12;101009.47;;;6.27;85.89
76994;BME280;66749;47.406;18.822;2024-01-27T01:17:44;101004.31;;;6.26;85.75
76994;BME280;66749;47.406;18.822;2024-01-27T01:18:16;101005.16;;;6.26;85.50
76994;BME280;66749;47.406;18.822;2024-01-27T01:18:48;101007.75;;;6.28;86.08
76994;BME280;66749;47.406;18.822;2024-01-27T01:19:20;101018.16;;;6.25;85.64
76994;BME280;66749;47.406;18.822;2024-01-27T01:19:51;101022.50;;;6.24;86.22
76994;BME280;66749;47.406;18.822;2024-01-27T01:20:23;101024.31;;;6.22;85.75
76994;BME280;66749;47.406;18.822;2024-01-27T01:20:57;101016.47;;;6.24;86.13
76994;BME280;66749;47.406;18.822;2024-01-27T01:21:29;101015.69;;;6.22;86.36
76994;BME280;66749;47.406;18.822;2024-01-27T01:22:01;101014.69;;;6.26;85.88
76994;BME280;66749;47.406;18.822;2024-01-27T01:22:33;101016.47;;;6.24;85.85
76994;BME280;66749;47.406;18.822;2024-01-27T01:23:05;101020.00;;;6.21;85.83
76994;BME280;66749;47.406;18.822;2024-01-27T01:23:37;101015.69;;;6.22;85.40
76994;BME280;66749;47.406;18.822;2024-01-27T01:24:08;101016.56;;;6.21;85.91
76994;BME280;66749;47.406;18.822;2024-01-27T01:24:40;101024.31;;;6.22;85.59
76994;BME280;66749;47.406;18.822;2024-01-27T01:25:12;101026.94;;;6.21;85.39
76994;BME280;66749;47.406;18.822;2024-01-27T01:25:44;101026.09;;;6.19;85.69
76994;BME280;66749;47.406;18.822;2024-01-27T01:26:16;101016.63;;;6.18;85.40
76994;BME280;66749;47.406;18.822;2024-01-27T01:26:48;101026.94;;;6.21;85.01
76994;BME280;66749;47.406;18.822;2024-01-27T01:27:20;101031.19;;;6.23;85.17
76994;BME280;66749;47.406;18.822;2024-01-27T01:27:52;101035.56;;;6.21;85.16
76994;BME280;66749;47.406;18.822;2024-01-27T01:28:24;101030.28;;;6.24;85.31
76994;BME280;66749;47.406;18.822;2024-01-27T01:28:56;101040.78;;;6.20;85.33
76994;BME280;66749;47.406;18.822;2024-01-27T01:29:28;101038.19;;;6.20;85.70
76994;BME280;66749;47.406;18.822;2024-01-27T01:30:00;101046.81;;;6.20;85.08
76994;BME280;66749;47.406;18.822;2024-01-27T01:30:32;101039.91;;;6.19;84.68
76994;BME280;66749;47.406;18.822;2024-01-27T01:31:06;101034.78;;;6.18;84.98
76994;BME280;66749;47.406;18.822;2024-01-27T01:31:41;101036.47;;;6.20;84.84
76994;BME280;66749;47.406;18.822;2024-01-27T01:32:14;101037.22;;;6.24;84.38
76994;BME280;66749;47.406;18.822;2024-01-27T01:32:46;101034.66;;;6.22;84.25
76994;BME280;66749;47.406;18.822;2024-01-27T01:33:19;101044.13;;;6.23;84.25
76994;BME280;66749;47.406;18.822;2024-01-27T01:33:50;101041.59;;;6.22;84.27
76994;BME280;66749;47.406;18.822;2024-01-27T01:34:23;101047.69;;;6.21;84.14
76994;BME280;66749;47.406;18.822;2024-01-27T01:34:55;101037.31;;;6.19;84.40
76994;BME280;66749;47.406;18.822;2024-01-27T01:35:27;101037.31;;;6.19;83.92
76994;BME280;66749;47.406;18.822;2024-01-27T01:35:58;101042.50;;;6.21;83.78
76994;BME280;66749;47.406;18.822;2024-01-27T01:36:30;101034.72;;;6.21;83.91
76994;BME280;66749;47.406;18.822;2024-01-27T01:37:02;101050.22;;;6.22;83.32
76994;BME280;66749;47.406;18.822;2024-01-27T01:37:34;101032.97;;;6.21;82.80
76994;BME280;66749;47.406;18.822;2024-01-27T01:38:06;101044.13;;;6.23;82.71
76994;BME280;66749;47.406;18.822;2024-01-27T01:38:37;101040.66;;;6.24;82.42
76994;BME280;66749;47.406;18.822;2024-01-27T01:39:10;101043.19;;;6.27;82.22
76994;BME280;66749;47.406;18.822;2024-01-27T01:39:42;101039.69;;;6.27;82.13
76994;BME280;66749;47.406;18.822;2024-01-27T01:40:14;101050.06;;;6.28;81.65
76994;BME280;66749;47.406;18.822;2024-01-27T01:40:47;101049.22;;;6.28;81.55
76994;BME280;66749;47.406;18.822;2024-01-27T01:41:19;101040.53;;;6.29;81.39
76994;BME280;66749;47.406;18.822;2024-01-27T01:41:51;101040.53;;;6.29;81.86
76994;BME280;66749;47.406;18.822;2024-01-27T01:42:22;101054.28;;;6.31;81.65
76994;BME280;66749;47.406;18.822;2024-01-27T01:42:58;101051.78;;;6.28;81.58
76994;BME280;66749;47.406;18.822;2024-01-27T01:43:30;101050.84;;;6.30;81.85
76994;BME280;66749;47.406;18.822;2024-01-27T01:44:02;101047.47;;;6.28;81.43
76994;BME280;66749;47.406;18.822;2024-01-27T01:44:34;101044.03;;;6.28;80.33
76994;BME280;66749;47.406;18.822;2024-01-27T01:45:06;101045.66;;;6.30;80.06
76994;BME280;66749;47.406;18.822;2024-01-27T01:45:38;101054.19;;;6.34;80.28
76994;BME280;66749;47.406;18.822;2024-01-27T01:46:10;101059.44;;;6.32;79.94
76994;BME280;66749;47.406;18.822;2024-01-27T01:46:42;101059.47;;;6.31;80.88
76994;BME280;66749;47.406;18.822;2024-01-27T01:47:14;101042.22;;;6.30;80.05
76994;BME280;66749;47.406;18.822;2024-01-27T01:47:46;101056.03;;;6.30;79.65
76994;BME280;66749;47.406;18.822;2024-01-27T01:48:18;101057.69;;;6.33;79.30
76994;BME280;66749;47.406;18.822;2024-01-27T01:48:51;101058.50;;;6.35;79.96
76994;BME280;66749;47.406;18.822;2024-01-27T01:49:23;101059.47;;;6.31;79.38
76994;BME280;66749;47.406;18.822;2024-01-27T01:49:55;101059.47;;;6.31;78.71
76994;BME280;66749;47.406;18.822;2024-01-27T01:50:28;101061.09;;;6.35;78.81
76994;BME280;66749;47.406;18.822;2024-01-27T01:51:00;101061.09;;;6.35;78.37
76994;BME280;66749;47.406;18.822;2024-01-27T01:51:32;101066.28;;;6.35;78.82
76994;BME280;66749;47.406;18.822;2024-01-27T01:52:04;101076.66;;;6.35;78.47
76994;BME280;66749;47.406;18.822;2024-01-27T01:52:38;101065.47;;;6.33;79.05
76994;BME280;66749;47.406;18.822;2024-01-27T01:53:10;101062.13;;;6.29;78.81
76994;BME280;66749;47.406;18.822;2024-01-27T01:53:48;101066.41;;;6.30;78.50
76994;BME280;66749;47.406;18.822;2024-01-27T01:54:20;101065.56;;;6.30;78.40
76994;BME280;66749;47.406;18.822;2024-01-27T01:54:54;101073.34;;;6.30;79.16
76994;BME280;66749;47.406;18.822;2024-01-27T01:55:26;101074.13;;;6.32;78.93
76994;BME280;66749;47.406;18.822;2024-01-27T01:55:58;101071.69;;;6.26;78.29
76994;BME280;66749;47.406;18.822;2024-01-27T01:56:29;101075.19;;;6.25;78.55
76994;BME280;66749;47.406;18.822;2024-01-27T01:57:02;101081.16;;;6.27;78.50
76994;BME280;66749;47.406;18.822;2024-01-27T01:57:35;101064.81;;;6.25;77.51
76994;BME280;66749;47.406;18.822;2024-01-27T01:58:07;101077.88;;;6.22;77.47
76994;BME280;66749;47.406;18.822;2024-01-27T01:58:39;101096.78;;;6.25;77.26
76994;BME280;66749;47.406;18.822;2024-01-27T01:59:11;101089.94;;;6.23;77.21
76994;BME280;66749;47.406;18.822;2024-01-27T01:59:43;101083.94;;;6.21;76.93
76994;BME280;66749;47.406;18.822;2024-01-27T02:00:15;101089.03;;;6.24;76.86
76994;BME280;66749;47.406;18.822;2024-01-27T02:00:48;101092.44;;;6.26;76.43
76994;BME280;66749;47.406;18.822;2024-01-27T02:01:20;101093.38;;;6.23;76.07
76994;BME280;66749;47.406;18.822;2024-01-27T02:01:53;101091.72;;;6.21;76.08
76994;BME280;66749;47.406;18.822;2024-01-27T02:02:25;101096.88;;;6.22;75.88
76994;BME280;66749;47.406;18.822;2024-01-27T02:02:57;101095.97;;;6.23;75.85
76994;BME280;66749;47.406;18.822;2024-01-27T02:03:28;101095.91;;;6.25;74.93
76994;BME280;66749;47.406;18.822;2024-01-27T02:04:00;101107.09;;;6.27;74.79
76994;BME280;66749;47.406;18.822;2024-01-27T02:04:42;101104.47;;;6.28;74.47
76994;BME280;66749;47.406;18.822;2024-01-27T02:05:14;101105.38;;;6.27;75.33
76994;BME280;66749;47.406;18.822;2024-01-27T02:05:46;101107.06;;;6.28;75.51
76994;BME280;66749;47.406;18.822;2024-01-27T02:06:18;101103.59;;;6.29;75.21
76994;BME280;66749;47.406;18.822;2024-01-27T02:06:50;101114.00;;;6.26;75.43
76994;BME280;66749;47.406;18.822;2024-01-27T02:07:22;101107.22;;;6.22;75.18
76994;BME280;66749;47.406;18.822;2024-01-27T02:07:54;101113.25;;;6.23;75.01
76994;BME280;66749;47.406;18.822;2024-01-27T02:08:28;101116.66;;;6.25;75.74
76994;BME280;66749;47.406;18.822;2024-01-27T02:08:59;101111.41;;;6.28;74.86
76994;BME280;66749;47.406;18.822;2024-01-27T02:09:31;101116.59;;;6.26;74.99
76994;BME280;66749;47.406;18.822;2024-01-27T02:10:03;101119.25;;;6.25;74.97
76994;BME280;66749;47.406;18.822;2024-01-27T02:10:35;101116.66;;;6.25;75.18
76994;BME280;66749;47.406;18.822;2024-01-27T02:11:08;101114.09;;;6.23;75.44
76994;BME280;66749;47.406;18.822;2024-01-27T02:11:40;101121.03;;;6.23;75.29
76994;BME280;66749;47.406;18.822;2024-01-27T02:12:12;101121.94;;;6.22;75.07
76994;BME280;66749;47.406;18.822;2024-01-27T02:12:44;101107.34;;;6.18;75.32
76994;BME280;66749;47.406;18.822;2024-01-27T02:13:16;101120.28;;;6.18;74.84
76994;BME280;66749;47.406;18.822;2024-01-27T02:14:08;101109.88;;;6.21;75.21
76994;BME280;66749;47.406;18.822;2024-01-27T02:14:40;101115.97;;;6.18;75.00
76994;BME280;66749;47.406;18.822;2024-01-27T02:15:13;101119.41;;;6.19;74.63
76994;BME280;66749;47.406;18.822;2024-01-27T02:15:46;101111.63;;;6.19;74.36
76994;BME280;66749;47.406;18.822;2024-01-27T02:16:17;101124.53;;;6.22;74.30
76994;BME280;66749;47.406;18.822;2024-01-27T02:16:49;101121.84;;;6.25;75.12
76994;BME280;66749;47.406;18.822;2024-01-27T02:17:21;101116.66;;;6.25;74.86
76994;BME280;66749;47.406;18.822;2024-01-27T02:17:53;101113.25;;;6.23;75.01
76994;BME280;66749;47.406;18.822;2024-01-27T02:18:25;101118.56;;;6.18;74.98
76994;BME280;66749;47.406;18.822;2024-01-27T02:18:57;101111.63;;;6.19;74.65
76994;BME280;66749;47.406;18.822;2024-01-27T02:19:29;101104.84;;;6.15;75.33
76994;BME280;66749;47.406;18.822;2024-01-27T02:20:01;101104.03;;;6.13;74.76
76994;BME280;66749;47.406;18.822;2024-01-27T02:20:33;101101.44;;;6.13;74.24
76994;BME280;66749;47.406;18.822;2024-01-27T02:21:05;101107.50;;;6.11;74.88
76994;BME280;66749;47.406;18.822;2024-01-27T02:21:37;101110.88;;;6.15;74.13
76994;BME280;66749;47.406;18.822;2024-01-27T02:22:09;101108.31;;;6.14;74.94
76994;BME280;66749;47.406;18.822;2024-01-27T02:22:41;101093.69;;;6.11;75.06
76994;BME280;66749;47.406;18.822;2024-01-27T02:23:12;101105.78;;;6.10;74.79
76994;BME280;66749;47.406;18.822;2024-01-27T02:23:44;101108.47;;;6.07;75.19
76994;BME280;66749;47.406;18.822;2024-01-27T02:24:16;101118.88;;;6.06;74.93
76994;BME280;66749;47.406;18.822;2024-01-27T02:24:48;101115.44;;;6.05;74.93
76994;BME280;66749;47.406;18.822;2024-01-27T02:25:20;101115.50;;;6.02;74.66
76994;BME280;66749;47.406;18.822;2024-01-27T02:25:52;101116.31;;;6.06;74.09
76994;BME280;66749;47.406;18.822;2024-01-27T02:26:23;101118.91;;;6.04;74.22
76994;BME280;66749;47.406;18.822;2024-01-27T02:26:55;101111.97;;;6.06;75.18
76994;BME280;66749;47.406;18.822;2024-01-27T02:27:27;101089.53;;;6.05;74.11
76994;BME280;66749;47.406;18.822;2024-01-27T02:28:00;101103.34;;;6.06;73.77
76994;BME280;66749;47.406;18.822;2024-01-27T02:28:34;101101.59;;;6.06;73.46
76994;BME280;66749;47.406;18.822;2024-01-27T02:29:06;101104.16;;;6.08;73.85
76994;BME280;66749;47.406;18.822;2024-01-27T02:29:38;101102.50;;;6.05;73.90
76994;BME280;66749;47.406;18.822;2024-01-27T02:30:10;101105.16;;;6.02;73.71
76994;BME280;66749;47.406;18.822;2024-01-27T02:30:42;101094.78;;;6.02;74.06
76994;BME280;66749;47.406;18.822;2024-01-27T02:31:14;101086.13;;;6.03;73.76
76994;BME280;66749;47.406;18.822;2024-01-27T02:31:46;101100.78;;;6.04;73.93
76994;BME280;66749;47.406;18.822;2024-01-27T02:32:18;101094.78;;;6.02;74.13
76994;BME280;66749;47.406;18.822;2024-01-27T02:32:51;101101.81;;;5.99;74.65
76994;BME280;66749;47.406;18.822;2024-01-27T02:33:23;101092.25;;;6.01;74.27
76994;BME280;66749;47.406;18.822;2024-01-27T02:33:55;101107.75;;;6.02;74.32
76994;BME280;66749;47.406;18.822;2024-01-27T02:34:27;101083.72;;;5.96;74.51
76994;BME280;66749;47.406;18.822;2024-01-27T02:34:59;101089.75;;;5.98;74.39
76994;BME280;66749;47.406;18.822;2024-01-27T02:35:31;101101.84;;;5.97;73.99
76994;BME280;66749;47.406;18.822;2024-01-27T02:36:03;101101.84;;;5.97;74.20
76994;BME280;66749;47.406;18.822;2024-01-27T02:36:35;101094.88;;;5.99;74.80
76994;BME280;66749;47.406;18.822;2024-01-27T02:37:06;101101.84;;;5.97;74.73
76994;BME280;66749;47.406;18.822;2024-01-27T02:37:38;101107.88;;;5.98;74.87
76994;BME280;66749;47.406;18.822;2024-01-27T02:38:10;101107.88;;;5.96;74.83
76994;BME280;66749;47.406;18.822;2024-01-27T02:38:42;101101.00;;;5.95;75.33
76994;BME280;66749;47.406;18.822;2024-01-27T02:39:14;101112.28;;;5.94;75.12
76994;BME280;66749;47.406;18.822;2024-01-27T02:39:46;101104.59;;;5.91;75.17
76994;BME280;66749;47.406;18.822;2024-01-27T02:40:17;101112.28;;;5.94;74.67
76994;BME280;66749;47.406;18.822;2024-01-27T02:40:49;101108.91;;;5.91;75.37
76994;BME280;66749;47.406;18.822;2024-01-27T02:41:21;101111.41;;;5.94;75.13
76994;BME280;66749;47.406;18.822;2024-01-27T02:41:53;101113.97;;;5.95;75.09
76994;BME280;66749;47.406;18.822;2024-01-27T02:42:25;101118.25;;;5.96;75.21
76994;BME280;66749;47.406;18.822;2024-01-27T02:42:57;101119.16;;;5.95;75.41
76994;BME280;66749;47.406;18.822;2024-01-27T02:43:29;101119.19;;;5.94;75.30
76994;BME280;66749;47.406;18.822;2024-01-27T02:44:01;101122.75;;;5.88;75.09
76994;BME280;66749;47.406;18.822;2024-01-27T02:44:33;101122.72;;;5.91;75.26
76994;BME280;66749;47.406;18.822;2024-01-27T02:45:05;101119.25;;;5.89;75.05
76994;BME280;66749;47.406;18.822;2024-01-27T02:45:36;101121.84;;;5.89;75.48
76994;BME280;66749;47.406;18.822;2024-01-27T02:46:11;101129.66;;;5.88;75.08
76994;BME280;66749;47.406;18.822;2024-01-27T02:46:43;101140.03;;;5.88;75.19
76994;BME280;66749;47.406;18.822;2024-01-27T02:47:16;101129.72;;;5.86;75.39
76994;BME280;66749;47.406;18.822;2024-01-27T02:47:47;101134.00;;;5.87;74.98
76994;BME280;66749;47.406;18.822;2024-01-27T02:48:19;101128.88;;;5.85;75.62
76994;BME280;66749;47.406;18.822;2024-01-27T02:48:51;101129.81;;;5.83;75.77